Time;durP1;ratioP1;P1;durP2;ratioP2;P2;SDS_P1;SDS_P2;PMS_P1;PMS_P2;Temp;Humidity;BMP_temperature;BMP_pressure;BME280_temperature;BME280_humidity;BME280_pressure;Samples;Min_cycle;Max_cycle;Signal;HPM_P1;HPM_P2
2021/04/03 00:00:42;;;;;;;;;;;4.60;97.40;;;;;;5071182;28;19915;-75
2021/04/03 00:03:08;;;;;;;;;;;4.60;97.60;;;;;;5071075;28;19967;-75
2021/04/03 00:05:33;;;;;;;;;;;4.60;97.60;;;;;;5070693;28;20321;-74
2021/04/03 00:08:00;;;;;;;;;;;4.70;97.50;;;;;;5070099;28;19908;-75
2021/04/03 00:10:30;;;;;;;;;;;4.70;97.60;;;;;;5070791;28;19915;-75
2021/04/03 00:12:56;;;;;;;;;;;4.70;97.50;;;;;;5070679;28;19961;-75
2021/04/03 00:15:22;;;;;;;;;;;4.70;97.40;;;;;;5070957;28;19995;-74
2021/04/03 00:17:47;;;;;;;;;;;4.70;97.30;;;;;;5069824;28;19909;-74
2021/04/03 00:20:14;;;;;;;;;;;4.70;97.40;;;;;;5070808;28;19973;-74
2021/04/03 00:22:39;;;;;;;;;;;4.70;97.40;;;;;;5060744;28;19921;-74
2021/04/03 00:25:05;;;;;;;;;;;4.80;97.30;;;;;;5059406;28;19908;-74
2021/04/03 00:27:31;;;;;;;;;;;4.80;97.20;;;;;;5069401;28;19916;-74
2021/04/03 00:29:57;;;;;;;;;;;4.70;96.90;;;;;;5070532;28;19912;-75
2021/04/03 00:32:23;;;;;;;;;;;4.60;96.70;;;;;;5070371;28;19909;-75
2021/04/03 00:34:48;;;;;;;;;;;4.60;96.70;;;;;;5070667;28;20140;-75
2021/04/03 00:37:14;;;;;;;;;;;4.60;96.80;;;;;;5069418;28;19939;-75
2021/04/03 00:39:39;;;;;;;;;;;4.50;96.50;;;;;;5070411;28;19923;-74
2021/04/03 00:42:15;;;;;;;;;;;4.50;96.30;;;;;;5070046;28;19908;-75
2021/04/03 00:44:43;;;;;;;;;;;4.40;95.90;;;;;;5070372;28;19963;-74
2021/04/03 00:47:08;;;;;;;;;;;4.40;95.90;;;;;;5069410;28;19913;-74
2021/04/03 00:49:33;;;;;;;;;;;4.40;95.70;;;;;;5070015;28;19995;-75
2021/04/03 00:52:03;;;;;;;;;;;4.40;95.70;;;;;;5061297;28;19909;-75
2021/04/03 00:54:28;;;;;;;;;;;4.40;95.80;;;;;;5061933;28;19920;-75
2021/04/03 00:56:54;;;;;;;;;;;4.40;95.70;;;;;;5050688;28;19909;-75
2021/04/03 00:59:19;;;;;;;;;;;4.40;94.90;;;;;;5051132;28;19909;-75
2021/04/03 01:01:45;;;;;;;;;;;4.40;95.10;;;;;;5051060;28;19909;-75
2021/04/03 01:04:10;;;;;;;;;;;4.30;94.40;;;;;;5051157;28;20359;-74
2021/04/03 01:06:36;;;;;;;;;;;4.30;94.50;;;;;;5049746;28;19959;-75
2021/04/03 01:09:02;;;;;;;;;;;4.30;94.60;;;;;;5055093;28;19913;-75
2021/04/03 01:11:32;;;;;;;;;;;4.40;94.60;;;;;;5069775;28;19915;-74
2021/04/03 01:14:07;;;;;;;;;;;4.30;94.30;;;;;;5056738;28;19915;-75
2021/04/03 01:16:55;;;;;;;;;;;4.40;94.20;;;;;;5050087;28;19908;-74
2021/04/03 01:19:20;;;;;;;;;;;4.30;94.10;;;;;;5064791;28;19915;-74
2021/04/03 01:22:06;;;;;;;;;;;4.30;94.20;;;;;;5065488;28;20003;-74
2021/04/03 01:24:40;;;;;;;;;;;4.40;94.30;;;;;;5060654;28;20321;-74
2021/04/03 01:27:12;;;;;;;;;;;4.30;93.90;;;;;;5050946;28;19913;-74
2021/04/03 01:29:50;;;;;;;;;;;4.30;94.00;;;;;;5050880;28;19909;-75
2021/04/03 01:32:17;;;;;;;;;;;4.30;94.20;;;;;;5049335;28;19916;-75
2021/04/03 01:34:43;;;;;;;;;;;4.30;94.30;;;;;;5050595;28;19932;-75
2021/04/03 01:37:12;;;;;;;;;;;4.30;94.30;;;;;;5045109;28;19921;-74
2021/04/03 01:39:38;;;;;;;;;;;4.30;94.40;;;;;;5050740;28;19909;-74
2021/04/03 01:42:05;;;;;;;;;;;4.30;94.20;;;;;;5050425;28;19967;-74
2021/04/03 01:44:35;;;;;;;;;;;4.20;94.10;;;;;;5050535;28;20317;-74
2021/04/03 01:47:01;;;;;;;;;;;4.20;94.10;;;;;;5049739;28;19909;-74
2021/04/03 01:49:27;;;;;;;;;;;4.20;94.40;;;;;;5050522;28;20356;-75
2021/04/03 01:51:53;;;;;;;;;;;4.20;94.20;;;;;;5056764;28;19908;-75
2021/04/03 01:54:20;;;;;;;;;;;4.20;94.20;;;;;;5055765;28;19909;-75
2021/04/03 01:56:49;;;;;;;;;;;4.20;94.30;;;;;;5049291;28;19962;-75
2021/04/03 01:59:15;;;;;;;;;;;4.20;94.30;;;;;;5063221;28;20254;-75
2021/04/03 02:01:42;;;;;;;;;;;4.20;94.40;;;;;;5069940;28;19913;-74
2021/04/03 02:04:08;;;;;;;;;;;4.30;94.30;;;;;;5052465;28;19939;-75
2021/04/03 02:06:35;;;;;;;;;;;4.30;94.40;;;;;;5053072;28;19916;-75
2021/04/03 02:09:01;;;;;;;;;;;4.30;94.50;;;;;;5073283;28;19908;-75
2021/04/03 02:11:28;;;;;;;;;;;4.30;94.40;;;;;;5072816;28;20433;-75
2021/04/03 02:13:54;;;;;;;;;;;4.30;94.40;;;;;;5073101;28;19908;-74
2021/04/03 02:16:21;;;;;;;;;;;4.40;94.10;;;;;;5053164;28;19909;-75
2021/04/03 02:18:48;;;;;;;;;;;4.30;94.20;;;;;;5053818;28;19920;-74
2021/04/03 02:21:13;;;;;;;;;;;4.30;94.20;;;;;;5053828;28;19919;-74
2021/04/03 02:23:39;;;;;;;;;;;4.30;94.20;;;;;;5062959;28;19912;-74
2021/04/03 02:26:04;;;;;;;;;;;4.20;94.20;;;;;;5056049;28;20425;-75
2021/04/03 02:28:30;;;;;;;;;;;4.20;94.40;;;;;;5054152;28;19909;-75
2021/04/03 02:30:56;;;;;;;;;;;4.20;94.50;;;;;;5053701;28;19980;-74
2021/04/03 02:33:21;;;;;;;;;;;4.20;94.50;;;;;;5053349;28;20007;-75
2021/04/03 02:35:47;;;;;;;;;;;4.30;94.60;;;;;;5052403;28;19924;-75
2021/04/03 02:38:13;;;;;;;;;;;4.30;94.60;;;;;;5053548;28;20445;-74
2021/04/03 02:40:39;;;;;;;;;;;4.30;94.80;;;;;;5053270;28;19917;-75
2021/04/03 02:43:21;;;;;;;;;;;4.30;94.40;;;;;;5053165;28;20317;-75
2021/04/03 02:45:49;;;;;;;;;;;4.30;94.50;;;;;;5052403;28;19920;-75
2021/04/03 02:48:19;;;;;;;;;;;4.20;94.90;;;;;;5053414;28;19994;-74
2021/04/03 02:50:45;;;;;;;;;;;4.20;94.80;;;;;;5072815;28;20369;-74
2021/04/03 02:53:12;;;;;;;;;;;4.10;94.60;;;;;;5057061;28;19992;-75
2021/04/03 02:55:38;;;;;;;;;;;4.10;94.80;;;;;;5073112;28;20277;-75
2021/04/03 02:58:04;;;;;;;;;;;4.10;94.80;;;;;;5053079;28;19999;-75
2021/04/03 03:00:30;;;;;;;;;;;4.10;94.90;;;;;;5053260;28;19951;-75
2021/04/03 03:02:56;;;;;;;;;;;4.00;94.90;;;;;;5064286;28;19913;-75
2021/04/03 03:05:22;;;;;;;;;;;4.00;94.90;;;;;;5062016;28;19935;-75
2021/04/03 03:07:49;;;;;;;;;;;4.00;95.10;;;;;;5070099;28;19978;-75
2021/04/03 03:10:16;;;;;;;;;;;4.00;95.10;;;;;;5064402;28;20003;-75
2021/04/03 03:12:45;;;;;;;;;;;4.00;95.00;;;;;;5068915;28;20353;-74
2021/04/03 03:15:13;;;;;;;;;;;4.00;95.00;;;;;;5057278;28;20271;-75
2021/04/03 03:17:39;;;;;;;;;;;4.00;94.90;;;;;;5057190;28;19908;-74
2021/04/03 03:20:06;;;;;;;;;;;4.00;94.90;;;;;;5052564;28;19909;-75
2021/04/03 03:22:32;;;;;;;;;;;4.00;94.90;;;;;;5052487;28;19916;-74
2021/04/03 03:24:58;;;;;;;;;;;4.00;95.00;;;;;;5052752;28;19908;-75
2021/04/03 03:27:24;;;;;;;;;;;4.00;94.80;;;;;;5051668;28;20286;-75
2021/04/03 03:29:50;;;;;;;;;;;4.00;94.90;;;;;;5057137;28;19908;-75
2021/04/03 03:32:15;;;;;;;;;;;4.00;94.90;;;;;;5071507;28;20277;-75
2021/04/03 03:34:41;;;;;;;;;;;4.00;94.80;;;;;;5071665;28;19908;-75
2021/04/03 03:37:08;;;;;;;;;;;4.00;94.70;;;;;;5070772;28;19938;-75
2021/04/03 03:39:33;;;;;;;;;;;4.00;94.90;;;;;;5071472;28;19908;-75
2021/04/03 03:42:00;;;;;;;;;;;4.00;94.60;;;;;;5054677;28;19909;-75
2021/04/03 03:44:26;;;;;;;;;;;4.00;94.70;;;;;;5059629;28;19919;-75
2021/04/03 03:46:51;;;;;;;;;;;3.90;94.60;;;;;;5056422;28;19909;-75
2021/04/03 03:49:17;;;;;;;;;;;3.90;94.80;;;;;;5052194;28;19932;-75
2021/04/03 03:51:42;;;;;;;;;;;4.00;94.60;;;;;;5051968;28;19963;-75
2021/04/03 03:54:08;;;;;;;;;;;4.00;94.70;;;;;;5054373;28;20292;-75
2021/04/03 03:56:34;;;;;;;;;;;4.00;94.40;;;;;;5060655;28;20373;-75
2021/04/03 03:59:00;;;;;;;;;;;3.90;94.70;;;;;;5059224;28;19909;-74
2021/04/03 04:01:25;;;;;;;;;;;3.90;94.70;;;;;;5051856;28;19934;-74
2021/04/03 04:03:51;;;;;;;;;;;3.90;94.60;;;;;;5051806;28;20003;-75
2021/04/03 04:06:16;;;;;;;;;;;3.90;94.80;;;;;;5050589;28;20374;-75
2021/04/03 04:08:44;;;;;;;;;;;3.90;94.80;;;;;;5051794;28;20251;-74
2021/04/03 04:11:09;;;;;;;;;;;3.90;94.90;;;;;;5051786;28;20000;-75
2021/04/03 04:13:37;;;;;;;;;;;3.90;95.00;;;;;;5051502;28;19952;-75
2021/04/03 04:16:03;;;;;;;;;;;3.90;95.20;;;;;;5050589;28;20278;-75
2021/04/03 04:18:29;;;;;;;;;;;3.90;95.40;;;;;;5051654;28;19940;-75
2021/04/03 04:20:54;;;;;;;;;;;3.90;95.70;;;;;;5051543;28;19959;-75
2021/04/03 04:23:20;;;;;;;;;;;3.90;95.80;;;;;;5051417;28;19912;-74
2021/04/03 04:25:45;;;;;;;;;;;3.90;95.80;;;;;;5060226;28;19932;-75
2021/04/03 04:28:11;;;;;;;;;;;3.90;95.70;;;;;;5052495;28;19915;-75
2021/04/03 04:30:36;;;;;;;;;;;3.90;95.90;;;;;;5070483;28;19916;-75
2021/04/03 04:33:02;;;;;;;;;;;3.80;96.00;;;;;;5070680;28;19908;-74
2021/04/03 04:35:27;;;;;;;;;;;3.80;95.90;;;;;;5070354;28;19967;-75
2021/04/03 04:37:52;;;;;;;;;;;3.80;95.80;;;;;;5069432;28;19920;-75
2021/04/03 04:40:18;;;;;;;;;;;3.80;95.90;;;;;;5070375;28;19912;-74
2021/04/03 04:42:44;;;;;;;;;;;3.70;96.00;;;;;;5070403;28;20073;-75
2021/04/03 04:45:10;;;;;;;;;;;3.70;96.00;;;;;;5070166;28;19909;-74
2021/04/03 04:47:36;;;;;;;;;;;3.70;96.10;;;;;;5069227;28;19999;-74
2021/04/03 04:50:03;;;;;;;;;;;3.60;96.10;;;;;;5070302;28;19916;-74
2021/04/03 04:52:29;;;;;;;;;;;3.60;96.40;;;;;;5070325;28;19915;-74
2021/04/03 04:54:54;;;;;;;;;;;3.60;96.60;;;;;;5058297;28;20277;-74
2021/04/03 04:57:20;;;;;;;;;;;3.60;96.50;;;;;;5059832;28;20408;-74
2021/04/03 04:59:45;;;;;;;;;;;3.60;96.30;;;;;;5050928;28;19921;-74
2021/04/03 05:02:11;;;;;;;;;;;3.60;96.60;;;;;;5050951;28;19944;-74
2021/04/03 05:04:36;;;;;;;;;;;3.60;96.70;;;;;;5050872;28;20381;-74
2021/04/03 05:07:02;;;;;;;;;;;3.60;96.60;;;;;;5050121;28;19935;-74
2021/04/03 05:09:27;;;;;;;;;;;3.60;97.00;;;;;;5055583;28;20425;-74
2021/04/03 05:11:53;;;;;;;;;;;3.60;97.00;;;;;;5067399;28;19954;-74
2021/04/03 05:14:18;;;;;;;;;;;3.50;96.50;;;;;;5058051;28;19909;-74
2021/04/03 05:16:44;;;;;;;;;;;3.60;96.30;;;;;;5049029;28;19969;-74
2021/04/03 05:19:09;;;;;;;;;;;3.60;96.60;;;;;;5050790;28;19970;-74
2021/04/03 05:21:35;;;;;;;;;;;3.60;96.30;;;;;;5050995;28;20337;-74
2021/04/03 05:24:00;;;;;;;;;;;3.70;96.20;;;;;;5053646;28;19912;-74
2021/04/03 05:26:26;;;;;;;;;;;3.70;96.60;;;;;;5058168;28;19920;-74
2021/04/03 05:28:51;;;;;;;;;;;3.80;96.50;;;;;;5055418;28;19995;-74
2021/04/03 05:31:20;;;;;;;;;;;3.80;96.20;;;;;;5051017;28;19909;-74
2021/04/03 05:33:46;;;;;;;;;;;3.80;96.20;;;;;;5050974;28;20321;-74
2021/04/03 05:36:12;;;;;;;;;;;3.90;96.30;;;;;;5049846;28;19939;-74
2021/04/03 05:38:38;;;;;;;;;;;3.90;96.40;;;;;;5052450;28;20467;-74
2021/04/03 05:41:03;;;;;;;;;;;3.90;96.00;;;;;;5055022;28;19920;-74
2021/04/03 05:43:29;;;;;;;;;;;3.80;95.60;;;;;;5054815;28;19919;-74
2021/04/03 05:45:57;;;;;;;;;;;3.80;95.80;;;;;;5053621;28;19913;-74
2021/04/03 05:48:23;;;;;;;;;;;3.80;95.60;;;;;;5058432;28;19958;-74
2021/04/03 05:50:53;;;;;;;;;;;3.80;95.60;;;;;;5064487;28;19934;-74
2021/04/03 05:53:20;;;;;;;;;;;3.80;95.60;;;;;;5054762;28;19958;-74
2021/04/03 05:55:45;;;;;;;;;;;3.80;95.50;;;;;;5063331;28;19908;-74
2021/04/03 05:58:11;;;;;;;;;;;4.00;96.00;;;;;;5056291;28;19996;-74
2021/04/03 06:00:36;;;;;;;;;;;4.00;95.50;;;;;;5052852;28;19913;-74
2021/04/03 06:03:01;;;;;;;;;;;4.10;95.80;;;;;;5052937;28;19913;-74
2021/04/03 06:05:27;;;;;;;;;;;4.10;95.80;;;;;;5054444;28;20377;-74
2021/04/03 06:07:52;;;;;;;;;;;4.20;95.80;;;;;;5053549;28;19913;-74
2021/04/03 06:10:18;;;;;;;;;;;4.20;95.40;;;;;;5060099;28;19913;-74
2021/04/03 06:12:47;;;;;;;;;;;4.30;95.40;;;;;;5065099;28;20348;-74
2021/04/03 06:15:12;;;;;;;;;;;4.40;95.50;;;;;;5054049;28;19995;-74
2021/04/03 06:17:38;;;;;;;;;;;4.40;94.80;;;;;;5053037;28;20035;-74
2021/04/03 06:20:04;;;;;;;;;;;4.40;95.00;;;;;;5054174;28;19999;-74
2021/04/03 06:22:50;;;;;;;;;;;4.40;95.70;;;;;;5053966;28;19913;-74
2021/04/03 06:25:15;;;;;;;;;;;4.50;95.70;;;;;;5060000;28;19909;-74
2021/04/03 06:27:41;;;;;;;;;;;4.50;95.20;;;;;;5062310;28;19909;-74
2021/04/03 06:30:14;;;;;;;;;;;4.50;95.10;;;;;;5062762;28;20403;-74
2021/04/03 06:32:40;;;;;;;;;;;4.50;94.70;;;;;;5066861;28;19916;-74
2021/04/03 06:35:06;;;;;;;;;;;4.50;95.00;;;;;;5058908;28;19909;-74
2021/04/03 06:37:31;;;;;;;;;;;4.50;94.80;;;;;;5058762;28;19909;-74
2021/04/03 06:40:00;;;;;;;;;;;4.50;95.30;;;;;;5070052;28;20007;-74
2021/04/03 06:42:40;;;;;;;;;;;4.60;95.00;;;;;;5070066;28;20270;-74
2021/04/03 06:45:19;;;;;;;;;;;4.70;95.10;;;;;;5069770;28;20559;-74
2021/04/03 06:47:46;;;;;;;;;;;4.70;94.80;;;;;;5068825;28;19909;-74
2021/04/03 06:50:12;;;;;;;;;;;4.70;95.00;;;;;;5069063;28;19909;-74
2021/04/03 06:52:39;;;;;;;;;;;4.80;95.00;;;;;;5070822;28;19908;-73
2021/04/03 06:55:05;;;;;;;;;;;4.80;94.70;;;;;;5058564;28;19941;-74
2021/04/03 06:57:30;;;;;;;;;;;4.80;94.50;;;;;;5067421;28;19959;-74
2021/04/03 06:59:56;;;;;;;;;;;4.70;94.50;;;;;;5065040;28;19913;-75
2021/04/03 07:02:22;;;;;;;;;;;4.70;94.70;;;;;;5058443;28;19927;-75
2021/04/03 07:04:48;;;;;;;;;;;4.70;94.90;;;;;;5053531;28;19912;-75
2021/04/03 07:07:14;;;;;;;;;;;4.70;94.60;;;;;;5052122;28;19909;-75
2021/04/03 07:09:40;;;;;;;;;;;4.70;94.90;;;;;;5055348;28;19962;-75
2021/04/03 07:12:06;;;;;;;;;;;4.80;94.90;;;;;;5063836;28;20355;-75
2021/04/03 07:14:32;;;;;;;;;;;4.90;95.00;;;;;;5055203;28;19909;-75
2021/04/03 07:16:58;;;;;;;;;;;5.00;94.50;;;;;;5052098;28;19931;-75
2021/04/03 07:19:27;;;;;;;;;;;4.90;94.50;;;;;;5052872;28;19916;-75
2021/04/03 07:21:53;;;;;;;;;;;4.90;94.30;;;;;;5053311;28;19916;-74
2021/04/03 07:24:19;;;;;;;;;;;4.90;94.50;;;;;;5054637;28;20254;-74
2021/04/03 07:26:46;;;;;;;;;;;4.90;94.40;;;;;;5061046;28;19944;-75
2021/04/03 07:29:30;;;;;;;;;;;4.90;94.20;;;;;;5052746;28;20318;-75
2021/04/03 07:31:55;;;;;;;;;;;4.90;93.80;;;;;;5053084;28;20281;-74
2021/04/03 07:34:38;;;;;;;;;;;5.00;94.10;;;;;;5052743;28;19909;-75
2021/04/03 07:37:03;;;;;;;;;;;5.20;94.30;;;;;;5051564;28;19921;-75
2021/04/03 07:39:35;;;;;;;;;;;5.40;93.30;;;;;;5052365;28;19916;-74
2021/04/03 07:42:01;;;;;;;;;;;5.60;93.30;;;;;;5065175;28;19923;-75
2021/04/03 07:44:32;;;;;;;;;;;5.90;93.20;;;;;;5071383;28;19917;-75
2021/04/03 07:47:16;;;;;;;;;;;6.60;92.90;;;;;;5070548;28;19908;-75
2021/04/03 07:49:41;;;;;;;;;;;7.20;91.70;;;;;;5071460;28;19908;-75
2021/04/03 07:52:07;;;;;;;;;;;7.90;90.50;;;;;;5071459;28;20353;-75
2021/04/03 07:54:32;;;;;;;;;;;8.00;88.60;;;;;;5068565;28;19908;-75
2021/04/03 07:56:59;;;;;;;;;;;7.60;88.00;;;;;;5066751;28;19961;-75
2021/04/03 07:59:51;;;;;;;;;;;7.20;89.90;;;;;;5051841;28;20239;-75
2021/04/03 08:02:18;;;;;;;;;;;7.30;90.00;;;;;;5049696;28;20385;-75
2021/04/03 08:04:44;;;;;;;;;;;7.30;88.90;;;;;;5052156;28;19920;-75
2021/04/03 08:07:10;;;;;;;;;;;7.00;88.70;;;;;;5051267;28;20314;-75
2021/04/03 08:09:35;;;;;;;;;;;6.80;89.80;;;;;;5051939;28;20337;-75
2021/04/03 08:12:02;;;;;;;;;;;6.70;89.80;;;;;;5051604;28;19993;-75
2021/04/03 08:14:28;;;;;;;;;;;6.70;90.30;;;;;;5051687;28;19915;-75
2021/04/03 08:16:54;;;;;;;;;;;6.60;89.60;;;;;;5050960;28;19995;-75
2021/04/03 08:19:23;;;;;;;;;;;6.50;89.00;;;;;;5051896;28;19908;-75
2021/04/03 08:21:49;;;;;;;;;;;6.40;89.90;;;;;;5052088;28;19909;-75
2021/04/03 08:24:15;;;;;;;;;;;6.20;89.40;;;;;;5055320;28;19965;-75
2021/04/03 08:26:41;;;;;;;;;;;6.20;89.60;;;;;;5054690;28;20282;-75
2021/04/03 08:29:07;;;;;;;;;;;6.10;90.00;;;;;;5054091;28;19913;-75
2021/04/03 08:31:34;;;;;;;;;;;6.20;90.00;;;;;;5050367;28;19908;-75
2021/04/03 08:34:04;;;;;;;;;;;6.30;90.10;;;;;;5051569;28;19916;-75
2021/04/03 08:36:33;;;;;;;;;;;6.40;89.90;;;;;;5050322;28;20392;-75
2021/04/03 08:39:09;;;;;;;;;;;6.40;89.50;;;;;;5050394;28;20334;-75
2021/04/03 08:41:36;;;;;;;;;;;6.60;90.60;;;;;;5050127;28;20365;-75
2021/04/03 08:44:02;;;;;;;;;;;6.90;90.00;;;;;;5050250;28;20007;-75
2021/04/03 08:46:27;;;;;;;;;;;7.20;88.50;;;;;;5050009;28;19909;-75
2021/04/03 08:48:54;;;;;;;;;;;7.40;87.80;;;;;;5051442;28;20286;-75
2021/04/03 08:51:20;;;;;;;;;;;7.70;88.20;;;;;;5051428;28;20011;-75
2021/04/03 08:53:49;;;;;;;;;;;7.80;85.20;;;;;;5049902;28;20350;-75
2021/04/03 08:56:18;;;;;;;;;;;7.70;85.30;;;;;;5059627;28;19916;-75
2021/04/03 08:58:44;;;;;;;;;;;7.60;84.60;;;;;;5052568;28;20354;-75
2021/04/03 09:01:10;;;;;;;;;;;7.40;86.00;;;;;;5051396;28;20004;-75
2021/04/03 09:03:36;;;;;;;;;;;7.60;86.10;;;;;;5058298;28;19920;-75
2021/04/03 09:06:03;;;;;;;;;;;7.90;87.00;;;;;;5055455;28;19909;-75
2021/04/03 09:08:28;;;;;;;;;;;8.20;85.10;;;;;;5051584;28;19915;-75
2021/04/03 09:10:55;;;;;;;;;;;8.50;87.80;;;;;;5059766;28;19913;-75
2021/04/03 09:13:21;;;;;;;;;;;9.20;85.60;;;;;;5063894;28;19908;-76
2021/04/03 09:15:48;;;;;;;;;;;9.60;82.20;;;;;;5056431;28;19961;-76
2021/04/03 09:18:13;;;;;;;;;;;9.80;80.60;;;;;;5053929;28;20374;-75
2021/04/03 09:20:49;;;;;;;;;;;9.80;79.30;;;;;;5055034;28;19912;-75
2021/04/03 09:23:15;;;;;;;;;;;9.70;79.50;;;;;;5055011;28;20350;-75
2021/04/03 09:25:41;;;;;;;;;;;9.30;79.00;;;;;;5053996;28;20270;-75
2021/04/03 09:28:10;;;;;;;;;;;8.60;78.90;;;;;;5053830;28;19935;-75
2021/04/03 09:30:40;;;;;;;;;;;8.20;80.00;;;;;;5054619;28;19959;-75
2021/04/03 09:33:22;;;;;;;;;;;7.80;80.50;;;;;;5060943;28;19913;-75
2021/04/03 09:35:49;;;;;;;;;;;8.10;81.60;;;;;;5063297;28;19923;-76
2021/04/03 09:38:15;;;;;;;;;;;8.30;80.50;;;;;;5063832;28;20396;-75
2021/04/03 09:40:44;;;;;;;;;;;8.30;80.90;;;;;;5059333;28;19908;-75
2021/04/03 09:43:10;;;;;;;;;;;8.30;82.00;;;;;;5057120;28;19912;-74
2021/04/03 09:45:37;;;;;;;;;;;8.30;82.40;;;;;;5059232;28;19916;-74
2021/04/03 09:48:03;;;;;;;;;;;8.60;83.70;;;;;;5067365;28;19931;-75
2021/04/03 09:50:29;;;;;;;;;;;9.40;82.70;;;;;;5074222;28;20276;-75
2021/04/03 09:52:57;;;;;;;;;;;10.20;78.20;;;;;;5059808;28;19999;-75
2021/04/03 09:55:23;;;;;;;;;;;11.20;75.80;;;;;;5060849;28;19909;-75
2021/04/03 09:57:48;;;;;;;;;;;12.10;72.90;;;;;;5060324;28;19920;-75
2021/04/03 10:00:14;;;;;;;;;;;12.50;71.80;;;;;;5059808;28;19974;-75
2021/04/03 10:02:39;;;;;;;;;;;12.90;71.90;;;;;;5060277;28;19913;-75
2021/04/03 10:05:05;;;;;;;;;;;12.40;68.70;;;;;;5058439;28;20255;-75
2021/04/03 10:07:31;;;;;;;;;;;12.50;71.80;;;;;;5053759;28;20352;-75
2021/04/03 10:09:56;;;;;;;;;;;12.60;70.10;;;;;;5054362;28;20293;-75
2021/04/03 10:12:22;;;;;;;;;;;12.70;65.30;;;;;;5057710;28;19920;-75
2021/04/03 10:14:47;;;;;;;;;;;12.60;66.70;;;;;;5062358;28;20011;-75
2021/04/03 10:17:13;;;;;;;;;;;12.90;64.40;;;;;;5073754;28;20216;-75
2021/04/03 10:19:39;;;;;;;;;;;13.10;65.50;;;;;;5065106;28;19908;-75
2021/04/03 10:22:05;;;;;;;;;;;13.70;65.80;;;;;;5053822;28;19908;-75
2021/04/03 10:24:30;;;;;;;;;;;13.70;65.60;;;;;;5060301;28;19917;-76
2021/04/03 10:26:55;;;;;;;;;;;14.00;64.60;;;;;;5063002;28;20370;-76
2021/04/03 10:29:21;;;;;;;;;;;14.30;61.80;;;;;;5063386;28;19982;-76
2021/04/03 10:31:46;;;;;;;;;;;14.80;62.20;;;;;;5057626;28;19916;-76
2021/04/03 10:34:12;;;;;;;;;;;14.70;58.50;;;;;;5067905;28;19916;-76
2021/04/03 10:36:37;;;;;;;;;;;14.40;59.40;;;;;;5055675;28;20259;-76
2021/04/03 10:39:03;;;;;;;;;;;14.30;62.40;;;;;;5053585;28;19913;-76
2021/04/03 10:41:29;;;;;;;;;;;14.40;61.40;;;;;;5053674;28;19935;-76
2021/04/03 10:43:54;;;;;;;;;;;14.80;61.20;;;;;;5053511;28;20381;-76
2021/04/03 10:46:20;;;;;;;;;;;15.00;58.80;;;;;;5052214;28;19962;-76
2021/04/03 10:48:45;;;;;;;;;;;15.10;60.10;;;;;;5053253;28;20277;-76
2021/04/03 10:51:11;;;;;;;;;;;15.10;59.70;;;;;;5053453;28;19909;-75
2021/04/03 10:53:36;;;;;;;;;;;14.50;59.30;;;;;;5053298;28;19966;-76
2021/04/03 10:56:02;;;;;;;;;;;13.80;60.10;;;;;;5052603;28;19952;-76
2021/04/03 10:58:27;;;;;;;;;;;13.00;61.10;;;;;;5053357;28;19932;-76
2021/04/03 11:00:53;;;;;;;;;;;12.30;62.10;;;;;;5052925;28;19916;-76
2021/04/03 11:03:19;;;;;;;;;;;11.90;65.80;;;;;;5059625;28;19932;-76
2021/04/03 11:05:44;;;;;;;;;;;12.00;64.80;;;;;;5057606;28;19909;-76
2021/04/03 11:08:10;;;;;;;;;;;12.50;67.70;;;;;;5072447;28;19954;-76
2021/04/03 11:10:35;;;;;;;;;;;13.40;62.90;;;;;;5062888;28;19983;-76
2021/04/03 11:13:02;;;;;;;;;;;14.20;62.20;;;;;;5061131;28;19908;-76
2021/04/03 11:15:28;;;;;;;;;;;14.40;59.40;;;;;;5062281;28;19909;-76
2021/04/03 11:17:53;;;;;;;;;;;14.00;59.70;;;;;;5063374;28;20384;-76
2021/04/03 11:20:19;;;;;;;;;;;13.40;59.40;;;;;;5058730;28;20285;-76
2021/04/03 11:22:45;;;;;;;;;;;12.80;61.90;;;;;;5051385;28;20279;-76
2021/04/03 11:25:10;;;;;;;;;;;12.40;62.40;;;;;;5053014;28;19916;-75
2021/04/03 11:27:36;;;;;;;;;;;12.10;62.70;;;;;;5067842;28;20369;-75
2021/04/03 11:30:13;;;;;;;;;;;12.10;65.40;;;;;;5071172;28;19931;-76
2021/04/03 11:32:42;;;;;;;;;;;12.50;64.50;;;;;;5071877;28;19916;-75
2021/04/03 11:35:08;;;;;;;;;;;12.60;61.70;;;;;;5071763;28;19908;-76
2021/04/03 11:37:33;;;;;;;;;;;12.30;61.60;;;;;;5070100;28;19916;-76
2021/04/03 11:39:59;;;;;;;;;;;11.90;62.40;;;;;;5071724;28;20285;-75
2021/04/03 11:42:25;;;;;;;;;;;11.50;62.90;;;;;;5059765;28;19909;-75
2021/04/03 11:44:51;;;;;;;;;;;11.20;62.20;;;;;;5050865;28;19913;-76
2021/04/03 11:47:16;;;;;;;;;;;11.50;64.10;;;;;;5057493;28;19917;-76
2021/04/03 11:49:42;;;;;;;;;;;12.10;63.90;;;;;;5066668;28;19915;-75
2021/04/03 11:52:07;;;;;;;;;;;12.50;61.90;;;;;;5060595;28;19915;-75
2021/04/03 11:54:33;;;;;;;;;;;12.20;61.10;;;;;;5055936;28;19961;-75
2021/04/03 11:56:58;;;;;;;;;;;11.80;61.80;;;;;;5057092;28;19909;-75
2021/04/03 11:59:24;;;;;;;;;;;11.70;61.30;;;;;;5052281;28;20426;-75
2021/04/03 12:01:49;;;;;;;;;;;11.40;61.40;;;;;;5068394;28;19913;-75
2021/04/03 12:04:15;;;;;;;;;;;11.40;63.30;;;;;;5071349;28;19913;-75
2021/04/03 12:06:40;;;;;;;;;;;11.00;63.10;;;;;;5070286;28;19909;-75
2021/04/03 12:09:06;;;;;;;;;;;10.70;63.20;;;;;;5060557;28;19932;-75
2021/04/03 12:11:31;;;;;;;;;;;10.50;64.20;;;;;;5056626;28;19913;-75
2021/04/03 12:13:57;;;;;;;;;;;10.30;65.10;;;;;;5058466;28;20455;-75
2021/04/03 12:16:22;;;;;;;;;;;10.20;65.80;;;;;;5049901;28;19995;-75
2021/04/03 12:18:50;;;;;;;;;;;10.00;66.00;;;;;;5051825;28;20379;-75
2021/04/03 12:21:16;;;;;;;;;;;9.90;66.80;;;;;;5050533;28;19909;-75
2021/04/03 12:23:41;;;;;;;;;;;9.80;68.00;;;;;;5053254;28;19913;-75
2021/04/03 12:26:07;;;;;;;;;;;9.80;67.70;;;;;;5060586;28;19922;-75
2021/04/03 12:28:32;;;;;;;;;;;9.80;67.50;;;;;;5055597;28;19913;-75
2021/04/03 12:30:58;;;;;;;;;;;10.00;66.80;;;;;;5051372;28;19931;-75
2021/04/03 12:33:23;;;;;;;;;;;10.10;65.90;;;;;;5051587;28;19909;-75
2021/04/03 12:35:49;;;;;;;;;;;10.50;66.00;;;;;;5050218;28;19964;-76
2021/04/03 12:38:14;;;;;;;;;;;10.90;64.40;;;;;;5051677;28;19909;-76
2021/04/03 12:40:40;;;;;;;;;;;11.20;64.30;;;;;;5051352;28;19915;-75
2021/04/03 12:43:05;;;;;;;;;;;11.20;62.70;;;;;;5051310;28;20358;-75
2021/04/03 12:45:31;;;;;;;;;;;11.00;63.80;;;;;;5049664;28;19908;-75
2021/04/03 12:47:56;;;;;;;;;;;10.80;65.00;;;;;;5049924;28;20345;-75
2021/04/03 12:50:22;;;;;;;;;;;10.60;64.90;;;;;;5049892;28;19908;-75
2021/04/03 12:52:47;;;;;;;;;;;10.40;64.00;;;;;;5051334;28;20392;-75
2021/04/03 12:55:13;;;;;;;;;;;10.20;64.60;;;;;;5057635;28;20273;-75
2021/04/03 12:57:38;;;;;;;;;;;10.10;64.60;;;;;;5057294;28;19952;-75
2021/04/03 13:00:05;;;;;;;;;;;10.10;66.40;;;;;;5050866;28;19965;-75
2021/04/03 13:02:30;;;;;;;;;;;10.10;65.30;;;;;;5051283;28;19920;-75
2021/04/03 13:04:56;;;;;;;;;;;10.10;66.70;;;;;;5050999;28;19913;-75
2021/04/03 13:07:21;;;;;;;;;;;10.00;66.90;;;;;;5050238;28;20000;-75
2021/04/03 13:09:47;;;;;;;;;;;9.90;68.50;;;;;;5055220;28;19916;-75
2021/04/03 13:12:12;;;;;;;;;;;9.90;68.00;;;;;;5058547;28;19983;-75
2021/04/03 13:14:38;;;;;;;;;;;9.80;66.10;;;;;;5057723;28;19915;-75
2021/04/03 13:17:03;;;;;;;;;;;9.80;66.60;;;;;;5052877;28;19983;-75
2021/04/03 13:19:29;;;;;;;;;;;9.90;66.30;;;;;;5050869;28;19909;-75
2021/04/03 13:21:54;;;;;;;;;;;10.10;63.90;;;;;;5049643;28;19920;-75
2021/04/03 13:24:20;;;;;;;;;;;10.40;64.40;;;;;;5052972;28;19919;-76
2021/04/03 13:26:45;;;;;;;;;;;10.70;64.60;;;;;;5059219;28;19936;-75
2021/04/03 13:29:11;;;;;;;;;;;10.80;63.80;;;;;;5050764;28;19912;-75
2021/04/03 13:31:36;;;;;;;;;;;10.70;64.30;;;;;;5050673;28;19909;-75
2021/04/03 13:34:02;;;;;;;;;;;10.50;65.10;;;;;;5050829;28;19944;-75
2021/04/03 13:36:27;;;;;;;;;;;10.40;65.30;;;;;;5050577;28;19925;-75
2021/04/03 13:38:53;;;;;;;;;;;10.40;65.50;;;;;;5060721;28;19919;-75
2021/04/03 13:41:18;;;;;;;;;;;10.40;64.80;;;;;;5054843;28;19909;-78
2021/04/03 13:43:44;;;;;;;;;;;10.30;63.60;;;;;;5066793;28;19940;-76
2021/04/03 13:46:10;;;;;;;;;;;10.10;64.40;;;;;;5051673;28;19909;-75
2021/04/03 13:48:36;;;;;;;;;;;10.10;64.90;;;;;;5050517;28;19963;-75
2021/04/03 13:51:01;;;;;;;;;;;10.10;65.30;;;;;;5050639;28;20251;-75
2021/04/03 13:53:27;;;;;;;;;;;10.20;64.80;;;;;;5068727;28;19913;-75
2021/04/03 13:55:52;;;;;;;;;;;10.40;66.10;;;;;;5054811;28;20282;-75
2021/04/03 13:58:19;;;;;;;;;;;10.50;62.40;;;;;;5055094;28;19909;-75
2021/04/03 14:00:44;;;;;;;;;;;10.70;63.90;;;;;;5053325;28;19909;-75
2021/04/03 14:03:12;;;;;;;;;;;10.70;62.40;;;;;;5052838;28;20263;-75
2021/04/03 14:05:38;;;;;;;;;;;10.80;63.50;;;;;;5053774;28;20151;-75
2021/04/03 14:08:04;;;;;;;;;;;10.80;61.90;;;;;;5053915;28;19935;-75
2021/04/03 14:10:30;;;;;;;;;;;10.70;62.20;;;;;;5053999;28;19912;-75
2021/04/03 14:12:55;;;;;;;;;;;10.50;62.10;;;;;;5053914;28;19916;-75
2021/04/03 14:15:21;;;;;;;;;;;10.40;62.10;;;;;;5053804;28;19913;-75
2021/04/03 14:17:46;;;;;;;;;;;10.20;63.30;;;;;;5053051;28;19999;-75
2021/04/03 14:20:12;;;;;;;;;;;10.10;62.10;;;;;;5054008;28;19909;-75
2021/04/03 14:22:38;;;;;;;;;;;10.00;61.10;;;;;;5053919;28;20362;-75